sensor_id;sensor_type;location;lat;lon;timestamp;P1;durP1;ratioP1;P2;durP2;ratioP2
59728;SDS011;45588;51.598;5.618;2022-12-29T00:01:21;5.67;;;2.90;;
59728;SDS011;45588;51.598;5.618;2022-12-29T00:03:46;3.73;;;3.23;;
59728;SDS011;45588;51.598;5.618;2022-12-29T00:06:12;4.80;;;4.07;;
59728;SDS011;45588;51.598;5.618;2022-12-29T00:08:37;4.30;;;3.67;;
59728;SDS011;45588;51.598;5.618;2022-12-29T00:11:06;2.65;;;2.35;;
59728;SDS011;45588;51.598;5.618;2022-12-29T00:13:31;4.30;;;3.05;;
59728;SDS011;45588;51.598;5.618;2022-12-29T00:16:15;2.75;;;2.55;;
59728;SDS011;45588;51.598;5.618;2022-12-29T00:18:41;2.87;;;2.10;;
59728;SDS011;45588;51.598;5.618;2022-12-29T00:21:07;2.83;;;2.00;;
59728;SDS011;45588;51.598;5.618;2022-12-29T00:23:50;3.10;;;1.80;;
59728;SDS011;45588;51.598;5.618;2022-12-29T00:26:34;2.17;;;1.17;;
59728;SDS011;45588;51.598;5.618;2022-12-29T00:29:18;2.30;;;1.40;;
59728;SDS011;45588;51.598;5.618;2022-12-29T00:32:02;0.90;;;0.80;;
59728;SDS011;45588;51.598;5.618;2022-12-29T00:34:46;1.90;;;1.10;;
59728;SDS011;45588;51.598;5.618;2022-12-29T00:37:30;0.77;;;0.52;;
59728;SDS011;45588;51.598;5.618;2022-12-29T00:40:14;2.20;;;0.90;;
59728;SDS011;45588;51.598;5.618;2022-12-29T00:42:58;3.95;;;1.25;;
59728;SDS011;45588;51.598;5.618;2022-12-29T00:45:41;1.23;;;0.95;;
59728;SDS011;45588;51.598;5.618;2022-12-29T00:48:07;1.77;;;1.27;;
59728;SDS011;45588;51.598;5.618;2022-12-29T00:50:32;2.20;;;1.40;;
59728;SDS011;45588;51.598;5.618;2022-12-29T00:52:57;3.10;;;1.30;;
59728;SDS011;45588;51.598;5.618;2022-12-29T00:55:22;1.97;;;1.33;;
59728;SDS011;45588;51.598;5.618;2022-12-29T00:57:47;1.07;;;0.83;;
59728;SDS011;45588;51.598;5.618;2022-12-29T01:00:13;2.47;;;2.27;;
59728;SDS011;45588;51.598;5.618;2022-12-29T01:02:38;2.75;;;2.55;;
59728;SDS011;45588;51.598;5.618;2022-12-29T01:05:03;3.80;;;3.07;;
59728;SDS011;45588;51.598;5.618;2022-12-29T01:07:28;4.32;;;4.00;;
59728;SDS011;45588;51.598;5.618;2022-12-29T01:09:53;3.87;;;3.00;;
59728;SDS011;45588;51.598;5.618;2022-12-29T01:12:37;14.65;;;5.55;;
59728;SDS011;45588;51.598;5.618;2022-12-29T01:15:05;5.75;;;3.20;;
59728;SDS011;45588;51.598;5.618;2022-12-29T01:17:31;5.32;;;4.82;;
59728;SDS011;45588;51.598;5.618;2022-12-29T01:19:56;7.00;;;5.13;;
59728;SDS011;45588;51.598;5.618;2022-12-29T01:22:21;5.07;;;4.57;;
59728;SDS011;45588;51.598;5.618;2022-12-29T01:24:46;2.80;;;2.43;;
59728;SDS011;45588;51.598;5.618;2022-12-29T01:27:11;4.40;;;2.93;;
59728;SDS011;45588;51.598;5.618;2022-12-29T01:29:37;4.40;;;3.30;;
59728;SDS011;45588;51.598;5.618;2022-12-29T01:32:02;5.65;;;2.97;;
59728;SDS011;45588;51.598;5.618;2022-12-29T01:34:27;4.03;;;3.63;;
59728;SDS011;45588;51.598;5.618;2022-12-29T01:36:52;4.25;;;3.17;;
59728;SDS011;45588;51.598;5.618;2022-12-29T01:39:17;3.47;;;3.17;;
59728;SDS011;45588;51.598;5.618;2022-12-29T01:41:43;3.53;;;3.20;;
59728;SDS011;45588;51.598;5.618;2022-12-29T01:46:52;2.90;;;1.90;;
59728;SDS011;45588;51.598;5.618;2022-12-29T01:49:18;5.45;;;2.60;;
59728;SDS011;45588;51.598;5.618;2022-12-29T01:51:45;2.67;;;2.05;;
59728;SDS011;45588;51.598;5.618;2022-12-29T01:54:13;1.73;;;1.63;;
59728;SDS011;45588;51.598;5.618;2022-12-29T01:56:40;3.97;;;1.15;;
59728;SDS011;45588;51.598;5.618;2022-12-29T01:59:07;4.18;;;1.77;;
59728;SDS011;45588;51.598;5.618;2022-12-29T02:01:33;3.40;;;1.92;;
59728;SDS011;45588;51.598;5.618;2022-12-29T02:03:59;1.83;;;1.50;;
59728;SDS011;45588;51.598;5.618;2022-12-29T02:06:35;2.72;;;1.13;;
59728;SDS011;45588;51.598;5.618;2022-12-29T02:09:01;2.15;;;1.33;;
59728;SDS011;45588;51.598;5.618;2022-12-29T02:11:27;9.15;;;2.03;;
59728;SDS011;45588;51.598;5.618;2022-12-29T02:13:53;3.53;;;1.48;;
59728;SDS011;45588;51.598;5.618;2022-12-29T02:34:24;2.67;;;0.95;;
59728;SDS011;45588;51.598;5.618;2022-12-29T02:44:27;3.92;;;1.65;;
59728;SDS011;45588;51.598;5.618;2022-12-29T02:52:18;4.60;;;1.38;;
59728;SDS011;45588;51.598;5.618;2022-12-29T02:54:45;4.53;;;1.58;;
59728;SDS011;45588;51.598;5.618;2022-12-29T02:59:51;5.18;;;1.40;;
59728;SDS011;45588;51.598;5.618;2022-12-29T03:07:53;2.33;;;1.27;;
59728;SDS011;45588;51.598;5.618;2022-12-29T03:10:30;3.67;;;1.50;;
59728;SDS011;45588;51.598;5.618;2022-12-29T03:15:44;4.20;;;1.92;;
59728;SDS011;45588;51.598;5.618;2022-12-29T03:20:58;2.90;;;0.88;;
59728;SDS011;45588;51.598;5.618;2022-12-29T03:23:25;3.00;;;1.33;;
59728;SDS011;45588;51.598;5.618;2022-12-29T03:25:53;3.05;;;1.27;;
59728;SDS011;45588;51.598;5.618;2022-12-29T03:28:21;3.78;;;1.65;;
59728;SDS011;45588;51.598;5.618;2022-12-29T03:30:47;4.40;;;1.55;;
59728;SDS011;45588;51.598;5.618;2022-12-29T03:33:14;2.35;;;1.40;;
59728;SDS011;45588;51.598;5.618;2022-12-29T03:35:41;2.42;;;0.80;;
59728;SDS011;45588;51.598;5.618;2022-12-29T03:38:20;1.67;;;0.88;;
59728;SDS011;45588;51.598;5.618;2022-12-29T03:40:55;2.15;;;1.20;;
59728;SDS011;45588;51.598;5.618;2022-12-29T03:43:21;2.65;;;1.60;;
59728;SDS011;45588;51.598;5.618;2022-12-29T03:45:46;3.92;;;1.20;;
59728;SDS011;45588;51.598;5.618;2022-12-29T03:48:12;3.63;;;1.83;;
59728;SDS011;45588;51.598;5.618;2022-12-29T03:50:37;3.67;;;1.23;;
59728;SDS011;45588;51.598;5.618;2022-12-29T03:53:02;2.53;;;1.27;;
59728;SDS011;45588;51.598;5.618;2022-12-29T03:55:27;2.87;;;1.50;;
59728;SDS011;45588;51.598;5.618;2022-12-29T03:57:53;3.10;;;1.10;;
59728;SDS011;45588;51.598;5.618;2022-12-29T04:00:18;4.28;;;1.55;;
59728;SDS011;45588;51.598;5.618;2022-12-29T04:02:43;2.97;;;0.60;;
59728;SDS011;45588;51.598;5.618;2022-12-29T04:05:08;5.33;;;2.10;;
59728;SDS011;45588;51.598;5.618;2022-12-29T04:07:33;4.82;;;1.38;;
59728;SDS011;45588;51.598;5.618;2022-12-29T04:09:58;3.10;;;1.30;;
59728;SDS011;45588;51.598;5.618;2022-12-29T04:12:24;3.58;;;1.30;;
59728;SDS011;45588;51.598;5.618;2022-12-29T04:14:49;6.87;;;1.90;;
59728;SDS011;45588;51.598;5.618;2022-12-29T04:17:14;4.32;;;1.40;;
59728;SDS011;45588;51.598;5.618;2022-12-29T04:19:39;1.50;;;0.77;;
59728;SDS011;45588;51.598;5.618;2022-12-29T04:22:05;5.80;;;1.60;;
59728;SDS011;45588;51.598;5.618;2022-12-29T04:24:30;5.40;;;1.10;;
59728;SDS011;45588;51.598;5.618;2022-12-29T04:26:55;1.45;;;0.70;;
59728;SDS011;45588;51.598;5.618;2022-12-29T04:29:20;6.50;;;1.98;;
59728;SDS011;45588;51.598;5.618;2022-12-29T04:31:46;2.58;;;0.73;;
59728;SDS011;45588;51.598;5.618;2022-12-29T04:34:11;7.50;;;1.60;;
59728;SDS011;45588;51.598;5.618;2022-12-29T04:36:36;5.70;;;1.55;;
59728;SDS011;45588;51.598;5.618;2022-12-29T04:39:01;7.10;;;1.90;;
59728;SDS011;45588;51.598;5.618;2022-12-29T04:41:26;4.47;;;1.45;;
59728;SDS011;45588;51.598;5.618;2022-12-29T04:43:52;7.93;;;1.88;;
59728;SDS011;45588;51.598;5.618;2022-12-29T04:46:17;8.20;;;2.00;;
59728;SDS011;45588;51.598;5.618;2022-12-29T04:48:42;1.65;;;0.80;;
59728;SDS011;45588;51.598;5.618;2022-12-29T04:51:07;5.20;;;1.53;;
59728;SDS011;45588;51.598;5.618;2022-12-29T04:53:32;2.25;;;0.85;;
59728;SDS011;45588;51.598;5.618;2022-12-29T04:55:58;2.88;;;0.88;;
59728;SDS011;45588;51.598;5.618;2022-12-29T04:58:23;7.77;;;1.77;;
59728;SDS011;45588;51.598;5.618;2022-12-29T05:00:48;5.95;;;1.90;;
59728;SDS011;45588;51.598;5.618;2022-12-29T05:03:13;9.27;;;1.65;;
59728;SDS011;45588;51.598;5.618;2022-12-29T05:05:39;8.67;;;0.90;;
59728;SDS011;45588;51.598;5.618;2022-12-29T05:08:04;5.03;;;1.10;;
59728;SDS011;45588;51.598;5.618;2022-12-29T05:10:29;5.70;;;1.00;;
59728;SDS011;45588;51.598;5.618;2022-12-29T05:12:54;7.93;;;1.97;;
59728;SDS011;45588;51.598;5.618;2022-12-29T05:15:19;4.20;;;1.20;;
59728;SDS011;45588;51.598;5.618;2022-12-29T05:17:45;9.27;;;2.53;;
59728;SDS011;45588;51.598;5.618;2022-12-29T05:20:10;8.50;;;2.13;;
59728;SDS011;45588;51.598;5.618;2022-12-29T05:22:35;10.85;;;2.47;;
59728;SDS011;45588;51.598;5.618;2022-12-29T05:25:01;10.27;;;2.35;;
59728;SDS011;45588;51.598;5.618;2022-12-29T05:27:26;9.90;;;1.33;;
59728;SDS011;45588;51.598;5.618;2022-12-29T05:29:51;7.68;;;1.70;;
59728;SDS011;45588;51.598;5.618;2022-12-29T05:32:16;5.13;;;1.63;;
59728;SDS011;45588;51.598;5.618;2022-12-29T05:34:42;3.93;;;1.30;;
59728;SDS011;45588;51.598;5.618;2022-12-29T05:37:07;7.57;;;2.10;;
59728;SDS011;45588;51.598;5.618;2022-12-29T05:39:32;6.57;;;2.10;;
59728;SDS011;45588;51.598;5.618;2022-12-29T05:41:57;10.37;;;2.20;;
59728;SDS011;45588;51.598;5.618;2022-12-29T05:44:22;7.93;;;1.25;;
59728;SDS011;45588;51.598;5.618;2022-12-29T05:46:48;6.07;;;1.90;;
59728;SDS011;45588;51.598;5.618;2022-12-29T05:49:13;5.72;;;0.95;;
59728;SDS011;45588;51.598;5.618;2022-12-29T05:51:38;7.63;;;2.17;;
59728;SDS011;45588;51.598;5.618;2022-12-29T05:54:03;6.70;;;1.30;;
59728;SDS011;45588;51.598;5.618;2022-12-29T05:56:28;1.80;;;0.90;;
59728;SDS011;45588;51.598;5.618;2022-12-29T05:58:54;5.97;;;2.07;;
59728;SDS011;45588;51.598;5.618;2022-12-29T06:01:19;8.45;;;2.65;;
59728;SDS011;45588;51.598;5.618;2022-12-29T06:03:44;8.27;;;2.07;;
59728;SDS011;45588;51.598;5.618;2022-12-29T06:06:09;7.75;;;2.50;;
59728;SDS011;45588;51.598;5.618;2022-12-29T06:08:34;8.70;;;1.85;;
59728;SDS011;45588;51.598;5.618;2022-12-29T06:10:59;4.78;;;1.10;;
59728;SDS011;45588;51.598;5.618;2022-12-29T06:13:25;3.67;;;1.60;;
59728;SDS011;45588;51.598;5.618;2022-12-29T06:15:50;6.85;;;1.27;;
59728;SDS011;45588;51.598;5.618;2022-12-29T06:18:15;4.28;;;1.50;;
59728;SDS011;45588;51.598;5.618;2022-12-29T06:20:41;4.45;;;1.67;;
59728;SDS011;45588;51.598;5.618;2022-12-29T06:23:06;5.77;;;1.37;;
59728;SDS011;45588;51.598;5.618;2022-12-29T06:25:31;8.98;;;2.22;;
59728;SDS011;45588;51.598;5.618;2022-12-29T06:27:58;5.03;;;1.73;;
59728;SDS011;45588;51.598;5.618;2022-12-29T06:30:23;8.70;;;2.30;;
59728;SDS011;45588;51.598;5.618;2022-12-29T06:32:48;4.93;;;1.70;;
59728;SDS011;45588;51.598;5.618;2022-12-29T06:35:13;7.18;;;1.85;;
59728;SDS011;45588;51.598;5.618;2022-12-29T06:37:39;6.33;;;1.87;;
59728;SDS011;45588;51.598;5.618;2022-12-29T06:40:04;3.75;;;0.90;;
59728;SDS011;45588;51.598;5.618;2022-12-29T06:42:29;9.93;;;2.47;;
59728;SDS011;45588;51.598;5.618;2022-12-29T06:44:55;8.27;;;2.00;;
59728;SDS011;45588;51.598;5.618;2022-12-29T06:47:23;6.35;;;2.17;;
59728;SDS011;45588;51.598;5.618;2022-12-29T06:49:48;3.88;;;1.15;;
59728;SDS011;45588;51.598;5.618;2022-12-29T06:52:13;11.38;;;2.13;;
59728;SDS011;45588;51.598;5.618;2022-12-29T06:54:39;3.87;;;1.03;;
59728;SDS011;45588;51.598;5.618;2022-12-29T06:57:04;7.72;;;2.45;;
59728;SDS011;45588;51.598;5.618;2022-12-29T06:59:29;4.27;;;1.07;;
59728;SDS011;45588;51.598;5.618;2022-12-29T07:01:54;7.73;;;2.00;;
59728;SDS011;45588;51.598;5.618;2022-12-29T07:04:19;5.60;;;1.03;;
59728;SDS011;45588;51.598;5.618;2022-12-29T07:06:45;11.57;;;2.65;;
59728;SDS011;45588;51.598;5.618;2022-12-29T07:09:10;4.93;;;1.40;;
59728;SDS011;45588;51.598;5.618;2022-12-29T07:11:35;8.68;;;1.13;;
59728;SDS011;45588;51.598;5.618;2022-12-29T07:14:01;13.95;;;2.63;;
59728;SDS011;45588;51.598;5.618;2022-12-29T07:16:26;10.60;;;2.35;;
59728;SDS011;45588;51.598;5.618;2022-12-29T07:18:51;12.20;;;3.13;;
59728;SDS011;45588;51.598;5.618;2022-12-29T07:21:17;7.88;;;2.22;;
59728;SDS011;45588;51.598;5.618;2022-12-29T07:23:42;7.75;;;1.27;;
59728;SDS011;45588;51.598;5.618;2022-12-29T07:26:08;10.25;;;2.65;;
59728;SDS011;45588;51.598;5.618;2022-12-29T07:28:34;4.10;;;1.27;;
59728;SDS011;45588;51.598;5.618;2022-12-29T07:31:00;9.95;;;2.67;;
59728;SDS011;45588;51.598;5.618;2022-12-29T07:33:25;9.48;;;2.63;;
59728;SDS011;45588;51.598;5.618;2022-12-29T07:35:52;14.00;;;3.47;;
59728;SDS011;45588;51.598;5.618;2022-12-29T07:38:18;6.30;;;1.20;;
59728;SDS011;45588;51.598;5.618;2022-12-29T07:40:43;12.37;;;3.17;;
59728;SDS011;45588;51.598;5.618;2022-12-29T07:43:08;11.40;;;2.70;;
59728;SDS011;45588;51.598;5.618;2022-12-29T07:45:33;5.43;;;1.20;;
59728;SDS011;45588;51.598;5.618;2022-12-29T07:47:58;7.23;;;1.20;;
59728;SDS011;45588;51.598;5.618;2022-12-29T07:50:23;11.43;;;3.47;;
59728;SDS011;45588;51.598;5.618;2022-12-29T07:52:49;23.80;;;8.30;;
59728;SDS011;45588;51.598;5.618;2022-12-29T07:55:14;3.88;;;1.13;;
59728;SDS011;45588;51.598;5.618;2022-12-29T07:57:40;10.88;;;3.05;;
59728;SDS011;45588;51.598;5.618;2022-12-29T08:00:05;6.85;;;1.38;;
59728;SDS011;45588;51.598;5.618;2022-12-29T08:02:31;13.40;;;3.28;;
59728;SDS011;45588;51.598;5.618;2022-12-29T08:04:56;13.82;;;3.25;;
59728;SDS011;45588;51.598;5.618;2022-12-29T08:07:21;11.10;;;1.87;;
59728;SDS011;45588;51.598;5.618;2022-12-29T08:09:46;10.73;;;2.83;;
59728;SDS011;45588;51.598;5.618;2022-12-29T08:12:11;11.38;;;3.15;;
59728;SDS011;45588;51.598;5.618;2022-12-29T08:14:36;10.87;;;1.57;;
59728;SDS011;45588;51.598;5.618;2022-12-29T08:17:02;9.55;;;3.45;;
59728;SDS011;45588;51.598;5.618;2022-12-29T08:19:27;10.07;;;1.50;;
59728;SDS011;45588;51.598;5.618;2022-12-29T08:21:52;13.68;;;3.38;;
59728;SDS011;45588;51.598;5.618;2022-12-29T08:24:18;10.88;;;2.65;;
59728;SDS011;45588;51.598;5.618;2022-12-29T08:26:43;6.80;;;1.48;;
59728;SDS011;45588;51.598;5.618;2022-12-29T08:29:08;9.75;;;3.22;;
59728;SDS011;45588;51.598;5.618;2022-12-29T08:31:33;17.13;;;3.93;;
59728;SDS011;45588;51.598;5.618;2022-12-29T08:33:59;5.20;;;1.47;;
59728;SDS011;45588;51.598;5.618;2022-12-29T08:36:24;14.00;;;3.05;;
59728;SDS011;45588;51.598;5.618;2022-12-29T08:38:50;15.30;;;4.00;;
59728;SDS011;45588;51.598;5.618;2022-12-29T08:41:15;11.40;;;1.50;;
59728;SDS011;45588;51.598;5.618;2022-12-29T08:43:40;5.50;;;1.80;;
59728;SDS011;45588;51.598;5.618;2022-12-29T08:46:05;13.95;;;3.88;;
59728;SDS011;45588;51.598;5.618;2022-12-29T08:48:31;9.30;;;2.70;;
59728;SDS011;45588;51.598;5.618;2022-12-29T08:50:56;15.50;;;3.67;;
59728;SDS011;45588;51.598;5.618;2022-12-29T08:53:21;6.43;;;1.35;;
59728;SDS011;45588;51.598;5.618;2022-12-29T08:55:46;13.82;;;3.38;;
59728;SDS011;45588;51.598;5.618;2022-12-29T08:58:11;12.43;;;3.28;;
59728;SDS011;45588;51.598;5.618;2022-12-29T09:00:39;12.18;;;3.33;;
59728;SDS011;45588;51.598;5.618;2022-12-29T09:03:04;11.07;;;3.55;;
59728;SDS011;45588;51.598;5.618;2022-12-29T09:05:29;7.00;;;2.03;;
59728;SDS011;45588;51.598;5.618;2022-12-29T09:07:55;13.03;;;3.60;;
59728;SDS011;45588;51.598;5.618;2022-12-29T09:10:20;11.43;;;2.83;;
59728;SDS011;45588;51.598;5.618;2022-12-29T09:12:45;9.33;;;1.47;;
59728;SDS011;45588;51.598;5.618;2022-12-29T09:15:10;13.57;;;3.10;;
59728;SDS011;45588;51.598;5.618;2022-12-29T09:17:37;10.48;;;3.00;;
59728;SDS011;45588;51.598;5.618;2022-12-29T09:20:17;9.43;;;1.45;;
59728;SDS011;45588;51.598;5.618;2022-12-29T09:22:43;17.05;;;3.53;;
59728;SDS011;45588;51.598;5.618;2022-12-29T09:25:08;12.32;;;3.17;;
59728;SDS011;45588;51.598;5.618;2022-12-29T09:27:34;11.43;;;2.90;;
59728;SDS011;45588;51.598;5.618;2022-12-29T09:29:59;5.95;;;1.40;;
59728;SDS011;45588;51.598;5.618;2022-12-29T09:32:24;10.00;;;2.90;;
59728;SDS011;45588;51.598;5.618;2022-12-29T09:34:49;13.80;;;3.20;;
59728;SDS011;45588;51.598;5.618;2022-12-29T09:37:14;12.18;;;2.85;;
59728;SDS011;45588;51.598;5.618;2022-12-29T09:39:40;7.93;;;1.43;;
59728;SDS011;45588;51.598;5.618;2022-12-29T09:42:11;8.55;;;2.20;;
59728;SDS011;45588;51.598;5.618;2022-12-29T09:45:25;14.40;;;2.08;;
59728;SDS011;45588;51.598;5.618;2022-12-29T09:47:23;10.43;;;1.90;;
59728;SDS011;45588;51.598;5.618;2022-12-29T09:49:52;14.00;;;2.95;;
59728;SDS011;45588;51.598;5.618;2022-12-29T09:52:23;10.35;;;3.30;;
59728;SDS011;45588;51.598;5.618;2022-12-29T09:54:56;17.02;;;3.47;;
59728;SDS011;45588;51.598;5.618;2022-12-29T09:59:58;13.80;;;3.17;;
59728;SDS011;45588;51.598;5.618;2022-12-29T10:02:29;7.03;;;1.80;;
59728;SDS011;45588;51.598;5.618;2022-12-29T10:04:55;10.30;;;2.78;;
59728;SDS011;45588;51.598;5.618;2022-12-29T10:12:27;6.35;;;1.70;;
59728;SDS011;45588;51.598;5.618;2022-12-29T10:25:00;10.45;;;3.17;;
59728;SDS011;45588;51.598;5.618;2022-12-29T10:27:29;9.32;;;3.50;;
59728;SDS011;45588;51.598;5.618;2022-12-29T10:29:55;9.60;;;3.30;;
59728;SDS011;45588;51.598;5.618;2022-12-29T10:32:24;12.30;;;2.35;;
59728;SDS011;45588;51.598;5.618;2022-12-29T10:34:51;16.17;;;4.10;;
59728;SDS011;45588;51.598;5.618;2022-12-29T10:37:27;11.52;;;3.10;;
59728;SDS011;45588;51.598;5.618;2022-12-29T10:39:54;9.25;;;2.80;;
59728;SDS011;45588;51.598;5.618;2022-12-29T10:42:27;9.75;;;3.53;;
59728;SDS011;45588;51.598;5.618;2022-12-29T10:44:55;11.75;;;3.65;;
59728;SDS011;45588;51.598;5.618;2022-12-29T10:47:25;14.05;;;3.28;;
59728;SDS011;45588;51.598;5.618;2022-12-29T10:49:51;5.25;;;1.38;;
59728;SDS011;45588;51.598;5.618;2022-12-29T10:52:18;8.68;;;2.17;;
59728;SDS011;45588;51.598;5.618;2022-12-29T10:57:26;15.60;;;3.90;;
59728;SDS011;45588;51.598;5.618;2022-12-29T10:59:52;12.18;;;3.22;;
59728;SDS011;45588;51.598;5.618;2022-12-29T11:05:14;7.85;;;1.27;;
59728;SDS011;45588;51.598;5.618;2022-12-29T11:07:46;9.93;;;3.35;;
59728;SDS011;45588;51.598;5.618;2022-12-29T11:10:18;9.73;;;3.50;;
59728;SDS011;45588;51.598;5.618;2022-12-29T11:12:55;11.90;;;3.25;;
59728;SDS011;45588;51.598;5.618;2022-12-29T11:15:20;8.45;;;1.95;;
59728;SDS011;45588;51.598;5.618;2022-12-29T11:17:50;13.73;;;3.00;;
59728;SDS011;45588;51.598;5.618;2022-12-29T11:20:19;15.82;;;3.25;;
59728;SDS011;45588;51.598;5.618;2022-12-29T11:22:44;11.27;;;3.60;;
59728;SDS011;45588;51.598;5.618;2022-12-29T11:25:10;13.35;;;3.90;;
59728;SDS011;45588;51.598;5.618;2022-12-29T11:27:37;13.40;;;1.80;;
59728;SDS011;45588;51.598;5.618;2022-12-29T11:30:02;4.90;;;1.63;;
59728;SDS011;45588;51.598;5.618;2022-12-29T11:32:50;14.52;;;2.88;;
59728;SDS011;45588;51.598;5.618;2022-12-29T11:36:01;9.48;;;2.17;;
59728;SDS011;45588;51.598;5.618;2022-12-29T11:38:01;14.02;;;3.53;;
59728;SDS011;45588;51.598;5.618;2022-12-29T11:40:27;20.42;;;4.20;;
59728;SDS011;45588;51.598;5.618;2022-12-29T11:43:02;14.43;;;3.90;;
59728;SDS011;45588;51.598;5.618;2022-12-29T11:45:29;13.13;;;4.00;;
59728;SDS011;45588;51.598;5.618;2022-12-29T11:48:07;8.27;;;2.42;;
59728;SDS011;45588;51.598;5.618;2022-12-29T11:50:36;7.95;;;2.05;;
59728;SDS011;45588;51.598;5.618;2022-12-29T11:53:06;14.35;;;2.00;;
59728;SDS011;45588;51.598;5.618;2022-12-29T11:55:32;10.93;;;2.22;;
59728;SDS011;45588;51.598;5.618;2022-12-29T11:57:58;17.55;;;4.63;;
59728;SDS011;45588;51.598;5.618;2022-12-29T12:00:26;15.13;;;3.70;;
59728;SDS011;45588;51.598;5.618;2022-12-29T12:03:02;14.10;;;3.50;;
59728;SDS011;45588;51.598;5.618;2022-12-29T12:05:40;17.45;;;4.00;;
59728;SDS011;45588;51.598;5.618;2022-12-29T12:10:32;6.65;;;1.63;;
59728;SDS011;45588;51.598;5.618;2022-12-29T12:13:05;12.15;;;3.90;;
59728;SDS011;45588;51.598;5.618;2022-12-29T12:15:35;13.77;;;3.97;;
59728;SDS011;45588;51.598;5.618;2022-12-29T12:20:56;12.52;;;1.80;;
59728;SDS011;45588;51.598;5.618;2022-12-29T12:23:27;10.00;;;2.00;;
59728;SDS011;45588;51.598;5.618;2022-12-29T12:26:10;16.83;;;3.97;;
59728;SDS011;45588;51.598;5.618;2022-12-29T12:28:37;15.30;;;3.78;;
59728;SDS011;45588;51.598;5.618;2022-12-29T12:31:05;12.93;;;3.78;;
59728;SDS011;45588;51.598;5.618;2022-12-29T12:33:36;15.52;;;4.05;;
59728;SDS011;45588;51.598;5.618;2022-12-29T12:38:37;13.10;;;4.07;;
59728;SDS011;45588;51.598;5.618;2022-12-29T12:41:06;11.18;;;3.90;;
59728;SDS011;45588;51.598;5.618;2022-12-29T12:43:40;20.25;;;4.85;;
59728;SDS011;45588;51.598;5.618;2022-12-29T12:46:10;19.52;;;4.20;;
59728;SDS011;45588;51.598;5.618;2022-12-29T12:51:25;9.73;;;2.85;;
59728;SDS011;45588;51.598;5.618;2022-12-29T12:56:27;18.05;;;4.82;;
59728;SDS011;45588;51.598;5.618;2022-12-29T13:04:29;9.07;;;1.75;;
59728;SDS011;45588;51.598;5.618;2022-12-29T13:07:03;10.27;;;3.58;;
59728;SDS011;45588;51.598;5.618;2022-12-29T13:12:01;14.57;;;3.75;;
59728;SDS011;45588;51.598;5.618;2022-12-29T13:14:44;14.90;;;3.13;;
59728;SDS011;45588;51.598;5.618;2022-12-29T13:17:24;13.63;;;3.40;;
59728;SDS011;45588;51.598;5.618;2022-12-29T13:20:36;13.98;;;3.28;;
59728;SDS011;45588;51.598;5.618;2022-12-29T13:22:44;15.35;;;3.85;;
59728;SDS011;45588;51.598;5.618;2022-12-29T13:30:15;13.18;;;3.67;;
59728;SDS011;45588;51.598;5.618;2022-12-29T13:32:48;12.52;;;3.50;;
59728;SDS011;45588;51.598;5.618;2022-12-29T13:38:17;6.43;;;1.88;;
59728;SDS011;45588;51.598;5.618;2022-12-29T13:40:45;15.68;;;5.05;;
59728;SDS011;45588;51.598;5.618;2022-12-29T13:43:12;14.63;;;4.57;;
59728;SDS011;45588;51.598;5.618;2022-12-29T13:45:38;10.30;;;2.30;;
59728;SDS011;45588;51.598;5.618;2022-12-29T13:48:39;10.60;;;1.95;;
59728;SDS011;45588;51.598;5.618;2022-12-29T13:50:57;18.25;;;4.15;;
59728;SDS011;45588;51.598;5.618;2022-12-29T13:53:26;9.40;;;2.28;;
59728;SDS011;45588;51.598;5.618;2022-12-29T13:55:58;15.23;;;5.22;;
59728;SDS011;45588;51.598;5.618;2022-12-29T14:01:18;10.17;;;2.17;;
59728;SDS011;45588;51.598;5.618;2022-12-29T14:06:15;11.52;;;4.03;;
59728;SDS011;45588;51.598;5.618;2022-12-29T14:08:41;16.25;;;2.03;;
59728;SDS011;45588;51.598;5.618;2022-12-29T14:11:09;13.32;;;3.72;;
59728;SDS011;45588;51.598;5.618;2022-12-29T14:13:36;10.65;;;3.30;;
59728;SDS011;45588;51.598;5.618;2022-12-29T14:16:02;16.52;;;3.92;;
59728;SDS011;45588;51.598;5.618;2022-12-29T14:18:29;14.23;;;4.45;;
59728;SDS011;45588;51.598;5.618;2022-12-29T14:21:01;7.10;;;1.75;;
59728;SDS011;45588;51.598;5.618;2022-12-29T14:28:32;14.35;;;4.15;;
59728;SDS011;45588;51.598;5.618;2022-12-29T14:30:58;10.38;;;3.28;;
59728;SDS011;45588;51.598;5.618;2022-12-29T14:33:24;13.85;;;3.80;;
59728;SDS011;45588;51.598;5.618;2022-12-29T14:35:51;14.27;;;4.63;;
59728;SDS011;45588;51.598;5.618;2022-12-29T14:38:27;11.75;;;2.95;;
59728;SDS011;45588;51.598;5.618;2022-12-29T14:41:15;7.93;;;3.00;;
59728;SDS011;45588;51.598;5.618;2022-12-29T14:43:39;16.92;;;4.78;;
59728;SDS011;45588;51.598;5.618;2022-12-29T14:46:04;12.35;;;3.47;;
59728;SDS011;45588;51.598;5.618;2022-12-29T14:48:34;5.88;;;2.45;;
59728;SDS011;45588;51.598;5.618;2022-12-29T14:51:00;11.82;;;3.60;;
59728;SDS011;45588;51.598;5.618;2022-12-29T14:53:42;20.17;;;2.60;;
59728;SDS011;45588;51.598;5.618;2022-12-29T14:56:09;21.20;;;4.55;;
59728;SDS011;45588;51.598;5.618;2022-12-29T15:01:19;15.70;;;4.63;;
59728;SDS011;45588;51.598;5.618;2022-12-29T15:03:46;12.55;;;4.30;;
59728;SDS011;45588;51.598;5.618;2022-12-29T15:06:15;13.68;;;3.20;;
59728;SDS011;45588;51.598;5.618;2022-12-29T15:08:46;15.95;;;3.55;;
59728;SDS011;45588;51.598;5.618;2022-12-29T15:11:14;6.35;;;1.92;;
59728;SDS011;45588;51.598;5.618;2022-12-29T15:13:41;9.50;;;2.28;;
59728;SDS011;45588;51.598;5.618;2022-12-29T15:16:23;14.10;;;4.45;;
59728;SDS011;45588;51.598;5.618;2022-12-29T15:18:49;7.88;;;2.20;;
59728;SDS011;45588;51.598;5.618;2022-12-29T15:21:16;8.70;;;1.92;;
59728;SDS011;45588;51.598;5.618;2022-12-29T15:23:42;9.55;;;2.05;;
59728;SDS011;45588;51.598;5.618;2022-12-29T15:26:08;12.13;;;3.65;;
59728;SDS011;45588;51.598;5.618;2022-12-29T15:28:37;8.95;;;1.95;;
59728;SDS011;45588;51.598;5.618;2022-12-29T15:31:04;10.68;;;4.15;;
59728;SDS011;45588;51.598;5.618;2022-12-29T15:33:29;10.25;;;2.83;;
59728;SDS011;45588;51.598;5.618;2022-12-29T15:35:55;6.45;;;2.17;;
59728;SDS011;45588;51.598;5.618;2022-12-29T15:38:21;10.73;;;3.33;;
59728;SDS011;45588;51.598;5.618;2022-12-29T15:40:49;12.30;;;2.13;;
59728;SDS011;45588;51.598;5.618;2022-12-29T15:43:23;12.88;;;2.55;;
59728;SDS011;45588;51.598;5.618;2022-12-29T15:45:51;13.93;;;3.75;;
59728;SDS011;45588;51.598;5.618;2022-12-29T15:48:19;7.95;;;1.88;;
59728;SDS011;45588;51.598;5.618;2022-12-29T15:50:45;5.45;;;1.50;;
59728;SDS011;45588;51.598;5.618;2022-12-29T15:53:11;6.50;;;2.58;;
59728;SDS011;45588;51.598;5.618;2022-12-29T15:55:38;7.22;;;2.63;;
59728;SDS011;45588;51.598;5.618;2022-12-29T15:58:04;6.85;;;2.67;;
59728;SDS011;45588;51.598;5.618;2022-12-29T16:02:55;6.60;;;2.25;;
59728;SDS011;45588;51.598;5.618;2022-12-29T16:05:21;4.70;;;1.65;;
59728;SDS011;45588;51.598;5.618;2022-12-29T16:07:53;2.80;;;1.10;;
59728;SDS011;45588;51.598;5.618;2022-12-29T16:12:48;5.32;;;1.48;;
59728;SDS011;45588;51.598;5.618;2022-12-29T16:15:13;7.53;;;2.37;;
59728;SDS011;45588;51.598;5.618;2022-12-29T16:17:46;2.63;;;1.10;;
59728;SDS011;45588;51.598;5.618;2022-12-29T16:20:20;3.95;;;1.88;;
59728;SDS011;45588;51.598;5.618;2022-12-29T16:22:50;9.90;;;1.92;;
59728;SDS011;45588;51.598;5.618;2022-12-29T16:25:21;4.67;;;1.30;;
59728;SDS011;45588;51.598;5.618;2022-12-29T16:27:47;10.38;;;2.05;;
59728;SDS011;45588;51.598;5.618;2022-12-29T16:32:51;4.57;;;1.52;;
59728;SDS011;45588;51.598;5.618;2022-12-29T16:37:45;5.32;;;1.65;;
59728;SDS011;45588;51.598;5.618;2022-12-29T16:42:45;4.85;;;1.30;;
59728;SDS011;45588;51.598;5.618;2022-12-29T16:47:49;2.88;;;1.90;;
59728;SDS011;45588;51.598;5.618;2022-12-29T16:50:34;10.00;;;2.60;;
59728;SDS011;45588;51.598;5.618;2022-12-29T16:53:00;5.15;;;1.45;;
59728;SDS011;45588;51.598;5.618;2022-12-29T16:55:25;5.75;;;2.05;;